Time;durP1;ratioP1;P1;durP2;ratioP2;P2;SDS_P1;SDS_P2;PMS_P1;PMS_P2;Temp;Humidity;BMP_temperature;BMP_pressure;BME280_temperature;BME280_humidity;BME280_pressure;Samples;Min_cycle;Max_cycle;Signal;HPM_P1;HPM_P2
2022/11/18 00:02:52;;;;;;;;;;;;;;;17.51;64.48;99643.18;2385136;73;51234;-77
2022/11/18 00:05:54;;;;;;;;;;;;;;;17.51;64.34;99644.00;2412285;73;50412;-77
2022/11/18 00:08:57;;;;;;;;;;;;;;;17.50;64.12;99643.70;2412476;73;51458;-76
2022/11/18 00:15:18;;;;;;;;;;;;;;;17.47;64.32;99626.72;2412718;73;24298;-77
2022/11/18 00:18:20;;;;;;;;;;;;;;;17.47;64.71;99627.20;2386885;73;51539;-77
2022/11/18 00:21:21;;;;;;;;;;;;;;;17.45;64.19;99626.09;2386887;73;50061;-78
2022/11/18 00:24:23;;;;;;;;;;;;;;;17.44;64.25;99633.78;2386528;73;50226;-77
2022/11/18 00:27:25;;;;;;;;;;;;;;;17.43;64.28;99632.66;2386749;73;52421;-77
2022/11/18 00:30:26;;;;;;;;;;;;;;;17.42;64.09;99634.52;2412239;72;52532;-78
2022/11/18 00:33:28;;;;;;;;;;;;;;;17.41;64.28;99632.84;2382516;73;50251;-77
2022/11/18 00:36:30;;;;;;;;;;;;;;;17.39;64.14;99634.89;2412062;73;50764;-78
2022/11/18 00:39:31;;;;;;;;;;;;;;;17.39;64.47;99636.23;2382091;73;52555;-77
2022/11/18 00:42:51;;;;;;;;;;;;;;;17.37;64.04;99644.98;2382320;73;50664;-78
2022/11/18 00:45:52;;;;;;;;;;;;;;;17.37;64.12;99647.66;2386661;73;50798;-77
2022/11/18 00:48:54;;;;;;;;;;;;;;;17.37;63.96;99650.34;2391448;74;50782;-78
2022/11/18 00:51:56;;;;;;;;;;;;;;;17.35;64.03;99644.36;2364272;74;52477;-77
2022/11/18 00:54:57;;;;;;;;;;;;;;;17.35;64.15;99647.03;2369392;73;50677;-78
2022/11/18 00:57:59;;;;;;;;;;;;;;;17.33;63.99;99647.22;2383259;73;50612;-78
2022/11/18 01:01:00;;;;;;;;;;;;;;;17.30;63.83;99647.62;2383206;73;51424;-78
2022/11/18 01:04:02;;;;;;;;;;;;;;;17.30;63.92;99650.30;2383064;73;50060;-78
2022/11/18 01:07:04;;;;;;;;;;;;;;;17.31;63.79;99653.78;2411732;73;50612;-78
2022/11/18 01:10:05;;;;;;;;;;;;;;;17.29;63.73;99647.80;2368932;75;52263;-78
2022/11/18 01:13:19;;;;;;;;;;;;;;;17.28;63.76;99644.83;2404124;73;49495;-77
2022/11/18 01:16:21;;;;;;;;;;;;;;;17.29;63.77;99650.48;2411601;73;50965;-77
2022/11/18 01:19:23;;;;;;;;;;;;;;;17.28;63.68;99650.18;2419793;72;51468;-78
2022/11/18 01:22:25;;;;;;;;;;;;;;;17.27;63.81;99648.02;2415561;73;51517;-77
2022/11/18 01:25:27;;;;;;;;;;;;;;;17.26;63.78;99647.69;2387289;73;50096;-77
2022/11/18 01:28:28;;;;;;;;;;;;;;;17.24;63.58;99647.09;2392451;73;51032;-78
2022/11/18 01:31:30;;;;;;;;;;;;;;;17.24;63.66;99645.75;2363708;73;51464;-77
2022/11/18 01:34:31;;;;;;;;;;;;;;;17.24;63.73;99648.91;2411423;73;50736;-77
2022/11/18 01:37:33;;;;;;;;;;;;;;;17.22;63.63;99652.32;2411881;73;50257;-78
2022/11/18 01:40:35;;;;;;;;;;;;;;;17.20;63.47;99649.84;2383165;73;51283;-78
2022/11/18 01:43:56;;;;;;;;;;;;;;;17.20;63.57;99654.66;2381932;73;50278;-77
2022/11/18 01:46:58;;;;;;;;;;;;;;;17.19;63.37;99664.23;2412043;73;50747;-77
2022/11/18 01:49:59;;;;;;;;;;;;;;;17.18;63.24;99670.59;2411922;73;50344;-77
2022/11/18 01:53:03;;;;;;;;;;;;;;;17.18;63.29;99663.91;2381507;73;51176;-77
2022/11/18 01:56:06;;;;;;;;;;;;;;;17.17;63.30;99659.59;2411707;73;51579;-77
2022/11/18 01:59:08;;;;;;;;;;;;;;;17.15;63.26;99661.11;2411682;73;50461;-76
2022/11/18 02:02:11;;;;;;;;;;;;;;;17.15;63.26;99657.10;2388648;73;51732;-77
2022/11/18 02:05:12;;;;;;;;;;;;;;;17.14;63.31;99659.48;2341936;75;50114;-77
2022/11/18 02:08:14;;;;;;;;;;;;;;;17.13;63.16;99653.80;2369908;75;50616;-77
2022/11/18 02:14:36;;;;;;;;;;;;;;;17.12;63.21;99656.69;2370528;74;22332;-77
2022/11/18 02:17:43;;;;;;;;;;;;;;;17.11;63.13;99659.88;2342477;75;49609;-77
2022/11/18 02:20:45;;;;;;;;;;;;;;;17.11;63.05;99667.05;2369726;74;51442;-77
2022/11/18 02:23:49;;;;;;;;;;;;;;;17.10;63.13;99656.88;2369862;75;50477;-77
2022/11/18 02:26:52;;;;;;;;;;;;;;;17.09;63.12;99663.77;2368756;75;50401;-77
2022/11/18 02:29:58;;;;;;;;;;;;;;;17.11;63.00;99665.70;2369693;73;50579;-76
2022/11/18 02:33:14;;;;;;;;;;;;;;;17.08;62.96;99665.59;2398858;73;51509;-76
2022/11/18 02:36:23;;;;;;;;;;;;;;;17.08;62.96;99661.58;2411831;73;50381;-77
2022/11/18 02:39:26;;;;;;;;;;;;;;;17.07;62.90;99666.63;2409834;73;51470;-77
2022/11/18 02:42:28;;;;;;;;;;;;;;;17.06;62.84;99669.00;2412668;73;52817;-77
2022/11/18 02:45:30;;;;;;;;;;;;;;;17.05;63.01;99668.66;2411608;73;51638;-77
2022/11/18 02:48:32;;;;;;;;;;;;;;;17.02;62.69;99666.39;2411934;73;50687;-77
2022/11/18 02:51:33;;;;;;;;;;;;;;;17.02;62.87;99670.40;2411945;73;50762;-77
2022/11/18 02:54:36;;;;;;;;;;;;;;;17.02;62.70;99667.73;2411776;73;50717;-77
2022/11/18 02:57:37;;;;;;;;;;;;;;;17.01;62.75;99670.09;2411895;73;50300;-77
2022/11/18 03:00:39;;;;;;;;;;;;;;;17.00;62.73;99672.95;2405904;73;50482;-77
2022/11/18 03:03:40;;;;;;;;;;;;;;;17.01;62.72;99670.09;2371361;73;50264;-77
2022/11/18 03:06:43;;;;;;;;;;;;;;;17.00;62.57;99673.77;2369733;74;50720;-76
2022/11/18 03:09:46;;;;;;;;;;;;;;;17.00;62.60;99675.11;2369840;75;50775;-77
2022/11/18 03:12:52;;;;;;;;;;;;;;;16.98;62.60;99664.63;2369651;75;51525;-77
2022/11/18 03:16:05;;;;;;;;;;;;;;;16.97;62.48;99665.64;2369669;74;50432;-77
2022/11/18 03:19:14;;;;;;;;;;;;;;;16.97;62.58;99660.81;2342148;75;49601;-77
2022/11/18 03:22:18;;;;;;;;;;;;;;;16.96;62.47;99656.50;2369575;74;50640;-77
2022/11/18 03:25:39;;;;;;;;;;;;;;;16.96;62.47;99668.52;2369683;75;50770;-76
2022/11/18 03:28:55;;;;;;;;;;;;;;;16.95;62.35;99665.52;2369371;75;50710;-77
2022/11/18 03:31:59;;;;;;;;;;;;;;;16.93;62.31;99667.59;2385215;73;50995;-77
2022/11/18 03:35:09;;;;;;;;;;;;;;;16.92;62.42;99676.61;2369701;75;50757;-77
2022/11/18 03:38:15;;;;;;;;;;;;;;;16.93;62.32;99679.09;2369856;75;50420;-76
2022/11/18 03:41:17;;;;;;;;;;;;;;;16.91;62.54;99680.31;2369756;73;50335;-77
2022/11/18 03:44:20;;;;;;;;;;;;;;;16.90;62.30;99686.66;2369161;75;51211;-77
2022/11/18 03:47:35;;;;;;;;;;;;;;;16.89;62.45;99678.34;2368729;74;50487;-77
2022/11/18 03:50:38;;;;;;;;;;;;;;;16.88;62.21;99686.05;2369046;73;51691;-77
2022/11/18 03:53:41;;;;;;;;;;;;;;;16.87;62.24;99685.72;2369581;75;50352;-77
2022/11/18 03:56:44;;;;;;;;;;;;;;;16.86;62.22;99691.58;2341938;75;49321;-77
2022/11/18 03:59:47;;;;;;;;;;;;;;;16.86;62.32;99696.92;2374004;73;51469;-77
2022/11/18 04:02:49;;;;;;;;;;;;;;;16.85;62.25;99706.45;2409127;73;51585;-77
2022/11/18 04:05:51;;;;;;;;;;;;;;;16.86;62.06;99713.47;2410514;74;50354;-77
2022/11/18 04:08:54;;;;;;;;;;;;;;;16.83;62.09;99699.98;2382016;74;50010;-77
2022/11/18 04:12:03;;;;;;;;;;;;;;;16.86;61.88;99716.14;2382187;74;50694;-77
2022/11/18 04:15:06;;;;;;;;;;;;;;;16.88;61.88;99710.09;2410123;74;51448;-77
2022/11/18 04:18:07;;;;;;;;;;;;;;;16.89;61.79;99711.73;2410565;74;50473;-77
2022/11/18 04:21:09;;;;;;;;;;;;;;;16.90;61.67;99713.38;2410534;74;50248;-77
2022/11/18 04:24:10;;;;;;;;;;;;;;;16.92;61.74;99711.34;2381957;74;50377;-77
2022/11/18 04:27:12;;;;;;;;;;;;;;;16.96;61.76;99713.44;2381783;74;50757;-77
2022/11/18 04:30:14;;;;;;;;;;;;;;;16.97;61.65;99715.59;2405965;73;51850;-76
2022/11/18 04:33:15;;;;;;;;;;;;;;;16.99;61.84;99716.23;2377894;73;51149;-77
2022/11/18 04:36:18;;;;;;;;;;;;;;;17.03;61.50;99718.84;2410874;73;50575;-77
2022/11/18 04:39:20;;;;;;;;;;;;;;;17.13;61.44;99724.63;2410993;73;51514;-77
2022/11/18 04:42:21;;;;;;;;;;;;;;;17.19;61.21;99731.88;2410818;73;51411;-77
2022/11/18 04:45:23;;;;;;;;;;;;;;;17.22;61.05;99728.52;2406366;74;51084;-77
2022/11/18 04:48:25;;;;;;;;;;;;;;;17.23;61.06;99734.98;2408836;74;52315;-77
2022/11/18 04:51:26;;;;;;;;;;;;;;;17.23;61.37;99741.66;2408969;74;50781;-77
2022/11/18 04:54:28;;;;;;;;;;;;;;;17.24;61.31;99746.49;2408854;74;50821;-77
2022/11/18 04:57:29;;;;;;;;;;;;;;;17.25;61.22;99742.81;2389198;73;50124;-77
2022/11/18 05:00:31;;;;;;;;;;;;;;;17.27;61.13;99755.48;2392294;73;51594;-78
2022/11/18 05:03:33;;;;;;;;;;;;;;;17.18;61.27;99758.80;2388655;73;51543;-77
2022/11/18 05:06:34;;;;;;;;;;;;;;;17.12;61.17;99752.91;2379002;73;51571;-76
2022/11/18 05:09:36;;;;;;;;;;;;;;;17.10;61.43;99752.27;2412248;73;52354;-77
2022/11/18 05:12:50;;;;;;;;;;;;;;;17.09;61.22;99755.98;2401535;73;51461;-77
2022/11/18 05:15:52;;;;;;;;;;;;;;;17.17;61.45;99763.33;2383094;73;50767;-78
2022/11/18 05:18:53;;;;;;;;;;;;;;;17.20;61.41;99759.44;2394271;73;50662;-77
2022/11/18 05:21:55;;;;;;;;;;;;;;;17.23;61.23;99763.05;2398550;73;52256;-77
2022/11/18 05:24:57;;;;;;;;;;;;;;;17.27;61.03;99766.17;2369085;74;50400;-78
2022/11/18 05:27:58;;;;;;;;;;;;;;;17.25;61.03;99762.87;2398252;73;50454;-77
2022/11/18 05:31:00;;;;;;;;;;;;;;;17.15;61.35;99757.86;2396331;73;50388;-76
2022/11/18 05:34:01;;;;;;;;;;;;;;;17.09;62.16;99760.81;2315475;75;50122;-77
2022/11/18 05:37:03;;;;;;;;;;;;;;;17.07;61.85;99770.05;2341914;74;51433;-76
2022/11/18 05:40:05;;;;;;;;;;;;;;;17.05;61.93;99770.22;2369003;75;51519;-77
2022/11/18 05:43:11;;;;;;;;;;;;;;;17.06;62.14;99769.22;2368799;75;51553;-76
2022/11/18 05:46:12;;;;;;;;;;;;;;;17.07;61.84;99774.88;2341009;75;49630;-76
2022/11/18 05:49:14;;;;;;;;;;;;;;;17.17;61.21;99785.23;2341574;75;50365;-77
2022/11/18 05:52:16;;;;;;;;;;;;;;;17.24;61.06;99794.62;2369168;75;50407;-77
2022/11/18 05:55:17;;;;;;;;;;;;;;;17.24;60.88;99796.80;2341505;75;50722;-77
2022/11/18 05:58:19;;;;;;;;;;;;;;;17.25;61.22;99799.78;2341194;75;50067;-76
2022/11/18 06:01:22;;;;;;;;;;;;;;;17.31;60.76;99806.19;2394727;73;51555;-76
2022/11/18 06:04:25;;;;;;;;;;;;;;;17.26;61.35;99804.61;2408479;73;51468;-76
2022/11/18 06:07:34;;;;;;;;;;;;;;;17.25;61.19;99815.00;2413933;73;51465;-75
2022/11/18 06:10:36;;;;;;;;;;;;;;;17.15;61.51;99814.00;2384583;73;50137;-77
2022/11/18 06:13:39;;;;;;;;;;;;;;;17.11;61.64;99820.73;2411955;73;51505;-77
2022/11/18 06:16:40;;;;;;;;;;;;;;;17.04;62.18;99819.36;2410480;73;51428;-77
2022/11/18 06:19:42;;;;;;;;;;;;;;;17.06;62.55;99820.00;2412708;73;51477;-77
2022/11/18 06:22:44;;;;;;;;;;;;;;;17.09;62.20;99826.30;2385189;73;51250;-78
2022/11/18 06:25:45;;;;;;;;;;;;;;;17.15;64.52;99834.86;2412274;73;49928;-77
2022/11/18 06:28:47;;;;;;;;;;;;;;;17.22;65.80;99831.44;2412072;73;50408;-77
2022/11/18 06:31:48;;;;;;;;;;;;;;;17.29;63.38;99846.51;2390891;73;50828;-77
2022/11/18 06:34:50;;;;;;;;;;;;;;;17.26;64.62;99847.39;2378522;74;51238;-77
2022/11/18 06:37:51;;;;;;;;;;;;;;;17.24;64.40;99838.73;2412496;73;50739;-76
2022/11/18 06:40:53;;;;;;;;;;;;;;;17.19;64.18;99846.84;2399396;72;50304;-77
2022/11/18 06:43:55;;;;;;;;;;;;;;;17.25;63.15;99845.75;2387269;73;50625;-76
2022/11/18 06:46:56;;;;;;;;;;;;;;;17.22;63.48;99854.16;2382268;74;50683;-75
2022/11/18 06:49:58;;;;;;;;;;;;;;;17.18;63.92;99853.19;2410644;74;50255;-77
2022/11/18 06:53:00;;;;;;;;;;;;;;;17.15;64.04;99855.42;2382252;74;50750;-77
2022/11/18 06:56:05;;;;;;;;;;;;;;;17.14;64.04;99854.61;2392074;73;51477;-75
2022/11/18 06:59:07;;;;;;;;;;;;;;;17.16;63.86;99869.95;2413536;73;50454;-76
2022/11/18 07:02:08;;;;;;;;;;;;;;;17.25;62.84;99876.49;2377868;73;49512;-77
2022/11/18 07:05:10;;;;;;;;;;;;;;;17.27;62.64;99876.62;2375831;73;49608;-75
2022/11/18 07:08:11;;;;;;;;;;;;;;;17.31;62.38;99885.06;2383085;73;50718;-75
2022/11/18 07:11:14;;;;;;;;;;;;;;;17.30;62.42;99886.92;2405609;73;51491;-77
2022/11/18 07:14:15;;;;;;;;;;;;;;;17.30;62.62;99887.44;2400196;71;51345;-76
2022/11/18 07:17:17;;;;;;;;;;;;;;;17.31;62.19;99884.55;2463218;72;51505;-76
2022/11/18 07:20:18;;;;;;;;;;;;;;;17.31;62.18;99881.05;2436018;72;50256;-76
2022/11/18 07:23:20;;;;;;;;;;;;;;;17.29;62.40;99885.77;2399907;73;50387;-77
2022/11/18 07:26:22;;;;;;;;;;;;;;;17.19;62.98;99886.94;2382114;73;49640;-76
2022/11/18 07:29:23;;;;;;;;;;;;;;;17.12;63.24;99893.24;2383591;73;51495;-77
2022/11/18 07:32:25;;;;;;;;;;;;;;;17.08;63.31;99902.13;2412770;73;50684;-77
2022/11/18 07:35:26;;;;;;;;;;;;;;;17.11;62.82;99902.27;2412020;73;50276;-77
2022/11/18 07:38:28;;;;;;;;;;;;;;;17.17;62.47;99899.66;2355686;73;49730;-76
2022/11/18 07:41:30;;;;;;;;;;;;;;;17.24;62.25;99898.88;2377635;73;50697;-76
2022/11/18 07:44:31;;;;;;;;;;;;;;;17.24;62.11;99905.08;2413438;73;50381;-77
2022/11/18 07:47:33;;;;;;;;;;;;;;;17.26;62.00;99914.23;2386537;73;50143;-76
2022/11/18 07:50:35;;;;;;;;;;;;;;;17.27;61.95;99907.88;2371889;72;52398;-76
2022/11/18 07:53:36;;;;;;;;;;;;;;;17.25;62.16;99911.25;2432836;72;50449;-77
2022/11/18 07:56:38;;;;;;;;;;;;;;;17.26;61.94;99912.38;2424911;72;50270;-78
2022/11/18 07:59:39;;;;;;;;;;;;;;;17.26;61.98;99921.73;2425670;73;50360;-76
2022/11/18 08:02:42;;;;;;;;;;;;;;;17.22;62.12;99917.81;2337563;73;52779;-77
2022/11/18 08:05:44;;;;;;;;;;;;;;;17.11;62.64;99937.02;2411836;73;51556;-75
2022/11/18 08:08:45;;;;;;;;;;;;;;;17.08;62.56;99928.86;2411680;73;50714;-76
2022/11/18 08:11:47;;;;;;;;;;;;;;;17.13;62.28;99934.98;2406052;73;50267;-76
2022/11/18 08:14:49;;;;;;;;;;;;;;;17.18;61.97;99933.39;2404219;73;50352;-77
2022/11/18 08:17:50;;;;;;;;;;;;;;;17.24;61.72;99944.33;2408779;73;50388;-77
2022/11/18 08:20:52;;;;;;;;;;;;;;;17.28;61.53;99937.59;2412231;73;50384;-78
2022/11/18 08:23:54;;;;;;;;;;;;;;;17.29;61.52;99934.75;2402980;73;50810;-78
2022/11/18 08:26:56;;;;;;;;;;;;;;;17.28;61.41;99940.27;2367826;74;49940;-78
2022/11/18 08:29:57;;;;;;;;;;;;;;;17.28;61.42;99936.27;2369209;75;51591;-78
2022/11/18 08:32:59;;;;;;;;;;;;;;;17.27;61.61;99943.46;2369174;74;51435;-77
2022/11/18 08:36:02;;;;;;;;;;;;;;;17.28;61.62;99942.95;2342088;74;50626;-78
2022/11/18 08:39:05;;;;;;;;;;;;;;;17.27;61.59;99948.80;2341435;75;49952;-78
2022/11/18 08:42:06;;;;;;;;;;;;;;;17.28;61.60;99961.66;2371014;73;51534;-78
2022/11/18 08:45:08;;;;;;;;;;;;;;;17.20;61.71;99955.41;2386569;73;50429;-78
2022/11/18 08:48:09;;;;;;;;;;;;;;;17.20;61.76;99970.12;2386405;73;50746;-80
2022/11/18 08:51:11;;;;;;;;;;;;;;;17.22;61.55;99970.45;2386948;73;52539;-78
2022/11/18 08:54:13;;;;;;;;;;;;;;;17.25;61.37;99985.59;2412694;73;50631;-77
2022/11/18 08:57:14;;;;;;;;;;;;;;;17.29;61.22;99989.56;2412884;73;50719;-77
2022/11/18 09:00:16;;;;;;;;;;;;;;;17.31;61.15;99991.50;2412588;73;51527;-76
2022/11/18 09:03:18;;;;;;;;;;;;;;;17.30;61.12;99993.87;2359139;73;51116;-76
2022/11/18 09:06:20;;;;;;;;;;;;;;;17.28;61.27;99997.76;2413335;73;50364;-77
2022/11/18 09:09:22;;;;;;;;;;;;;;;17.27;61.29;100003.63;2414077;73;50754;-77
2022/11/18 09:12:23;;;;;;;;;;;;;;;17.26;61.47;100008.62;2385275;73;50309;-77
2022/11/18 09:15:25;;;;;;;;;;;;;;;17.25;61.63;100019.53;2386342;73;49531;-78
2022/11/18 09:18:27;;;;;;;;;;;;;;;17.29;61.50;100023.46;2386081;73;51870;-77
2022/11/18 09:21:28;;;;;;;;;;;;;;;17.27;61.54;100030.87;2412328;73;51487;-77
2022/11/18 09:24:30;;;;;;;;;;;;;;;17.29;61.43;100031.48;2412192;73;51533;-76
2022/11/18 09:27:32;;;;;;;;;;;;;;;17.44;61.10;100032.27;2359413;73;50072;-77
2022/11/18 09:30:33;;;;;;;;;;;;;;;17.51;60.91;100034.50;2359135;73;52456;-77
2022/11/18 09:33:36;;;;;;;;;;;;;;;17.58;60.74;100043.42;2412302;73;51420;-76
2022/11/18 09:36:38;;;;;;;;;;;;;;;17.63;60.41;100043.67;2436103;72;51518;-76
2022/11/18 09:39:39;;;;;;;;;;;;;;;17.65;60.26;100042.16;2459818;72;50962;-76
2022/11/18 09:42:55;;;;;;;;;;;;;;;17.62;60.27;100047.39;2388766;73;52138;-79
2022/11/18 09:45:58;;;;;;;;;;;;;;;17.60;60.20;100057.44;2327160;76;51481;-79
2022/11/18 09:49:14;;;;;;;;;;;;;;;17.52;60.33;100054.90;2327371;76;50412;-80
2022/11/18 09:52:16;;;;;;;;;;;;;;;17.35;55.21;100052.14;2293979;76;49701;-81
2022/11/18 09:55:20;;;;;;;;;;;;;;;17.20;57.94;100059.68;2326155;76;50722;-78
2022/11/18 09:58:22;;;;;;;;;;;;;;;17.14;57.68;100056.95;2326433;76;51598;-79
2022/11/18 10:01:24;;;;;;;;;;;;;;;17.18;57.86;100067.05;2291518;75;51364;-80
2022/11/18 10:04:27;;;;;;;;;;;;;;;17.16;58.00;100060.23;2261827;77;50951;-79
2022/11/18 10:07:39;;;;;;;;;;;;;;;17.20;58.14;100064.20;2287457;77;50606;-80
2022/11/18 10:10:42;;;;;;;;;;;;;;;17.26;58.13;100067.45;2296805;76;50863;-79
2022/11/18 10:13:45;;;;;;;;;;;;;;;17.32;58.07;100072.06;2326121;76;51550;-78
2022/11/18 10:17:05;;;;;;;;;;;;;;;17.36;57.99;100070.65;2287831;76;51067;-79
2022/11/18 10:20:11;;;;;;;;;;;;;;;17.41;58.03;100081.61;2314251;76;50511;-79
2022/11/18 10:23:14;;;;;;;;;;;;;;;17.48;57.94;100080.87;2400099;73;50496;-79
2022/11/18 10:26:15;;;;;;;;;;;;;;;17.50;57.82;100080.18;2390116;74;50463;-79
2022/11/18 10:29:17;;;;;;;;;;;;;;;17.47;58.04;100075.19;2382610;73;50730;-78
2022/11/18 10:32:19;;;;;;;;;;;;;;;17.44;58.12;100067.55;2369711;74;50729;-79
2022/11/18 10:35:24;;;;;;;;;;;;;;;17.42;58.11;100090.48;2369260;74;51566;-79
2022/11/18 10:38:26;;;;;;;;;;;;;;;17.38;58.19;100090.53;2369398;74;50401;-79
2022/11/18 10:41:27;;;;;;;;;;;;;;;17.36;58.23;100096.57;2323841;74;51064;-79
2022/11/18 10:44:30;;;;;;;;;;;;;;;17.33;58.27;100102.30;2383673;72;50966;-78
2022/11/18 10:47:32;;;;;;;;;;;;;;;17.31;58.36;100101.66;2406016;73;51470;-79
2022/11/18 10:50:38;;;;;;;;;;;;;;;17.33;58.37;100096.44;2342768;74;50796;-78
2022/11/18 10:53:41;;;;;;;;;;;;;;;17.41;58.14;100096.83;2342850;74;50112;-79
2022/11/18 10:56:53;;;;;;;;;;;;;;;17.42;58.16;100103.86;2339422;75;51578;-79
2022/11/18 10:59:55;;;;;;;;;;;;;;;17.40;58.23;100103.21;2385340;72;50820;-79
2022/11/18 11:02:57;;;;;;;;;;;;;;;17.38;58.14;100110.59;2460793;72;50301;-78
2022/11/18 11:06:15;;;;;;;;;;;;;;;17.37;58.24;100116.97;2387355;73;50116;-79
2022/11/18 11:09:26;;;;;;;;;;;;;;;17.33;58.31;100113.00;2394330;73;51520;-79
2022/11/18 11:12:28;;;;;;;;;;;;;;;17.33;58.24;100119.68;2400849;73;50772;-79
2022/11/18 11:15:40;;;;;;;;;;;;;;;17.29;58.48;100123.73;2410135;74;50441;-80
2022/11/18 11:18:42;;;;;;;;;;;;;;;17.28;58.53;100124.77;2374593;74;50767;-79
2022/11/18 11:21:44;;;;;;;;;;;;;;;17.20;58.80;100111.81;2400854;73;50612;-79
2022/11/18 11:24:45;;;;;;;;;;;;;;;17.38;58.37;100118.61;2406230;73;50682;-79
2022/11/18 11:27:48;;;;;;;;;;;;;;;17.48;58.08;100118.31;2414679;73;50348;-79
2022/11/18 11:30:52;;;;;;;;;;;;;;;17.55;57.90;100120.05;2387981;73;50200;-79
2022/11/18 11:33:55;;;;;;;;;;;;;;;17.64;57.60;100122.91;2394934;73;50497;-79
2022/11/18 11:37:11;;;;;;;;;;;;;;;17.70;57.56;100118.67;2414117;73;50866;-79
2022/11/18 11:40:24;;;;;;;;;;;;;;;17.72;57.64;100121.96;2412839;73;51049;-78
2022/11/18 11:43:43;;;;;;;;;;;;;;;17.71;57.67;100121.66;2356826;73;51040;-77
2022/11/18 11:50:24;;;;;;;;;;;;;;;17.58;57.99;100126.35;2389774;74;24292;-78
2022/11/18 11:53:44;;;;;;;;;;;;;;;17.56;58.12;100125.70;2409434;73;51539;-78
2022/11/18 11:56:54;;;;;;;;;;;;;;;17.50;58.28;100129.66;2370679;73;50729;-78
2022/11/18 11:59:57;;;;;;;;;;;;;;;17.53;58.19;100122.08;2383297;73;50737;-78
2022/11/18 12:03:00;;;;;;;;;;;;;;;17.47;58.26;100133.55;2357930;74;51452;-78
2022/11/18 12:06:02;;;;;;;;;;;;;;;17.54;57.72;100129.59;2370601;74;51560;-78
2022/11/18 12:09:05;;;;;;;;;;;;;;;17.61;57.68;100137.19;2372090;73;50019;-79
2022/11/18 12:12:33;;;;;;;;;;;;;;;17.64;57.67;100135.47;2411362;73;51587;-78
2022/11/18 12:15:13;;;;;;;;;;;;;;;17.67;57.60;100137.75;2407316;73;22358;-79
2022/11/18 12:18:22;;;;;;;;;;;;;;;17.68;57.54;100142.11;2412910;73;50435;-79
2022/11/18 12:21:28;;;;;;;;;;;;;;;17.60;57.73;100145.73;2342848;74;52033;-79
2022/11/18 12:24:35;;;;;;;;;;;;;;;17.58;57.62;100153.63;2351570;74;51524;-78
2022/11/18 12:27:38;;;;;;;;;;;;;;;17.54;57.70;100151.81;2364632;75;50387;-78
2022/11/18 12:30:40;;;;;;;;;;;;;;;17.49;57.91;100158.75;2366506;74;50466;-78
2022/11/18 12:33:42;;;;;;;;;;;;;;;17.48;57.85;100167.80;2341321;74;49391;-80
2022/11/18 12:36:44;;;;;;;;;;;;;;;17.45;58.01;100164.17;2370551;75;51584;-79
2022/11/18 12:39:46;;;;;;;;;;;;;;;17.50;57.94;100171.95;2401606;73;50380;-79
2022/11/18 12:46:07;;;;;;;;;;;;;;;17.67;57.70;100167.19;2369036;75;22462;-80
2022/11/18 12:49:26;;;;;;;;;;;;;;;17.71;57.70;100160.97;2369864;75;51459;-79
2022/11/18 12:52:32;;;;;;;;;;;;;;;17.76;57.66;100169.25;2369848;72;50264;-79
2022/11/18 12:55:33;;;;;;;;;;;;;;;17.73;57.55;100172.31;2407030;73;51619;-79
2022/11/18 12:58:35;;;;;;;;;;;;;;;17.71;57.47;100174.34;2386492;73;52124;-79
2022/11/18 13:01:36;;;;;;;;;;;;;;;17.67;57.58;100183.23;2412233;73;51433;-79
2022/11/18 13:04:38;;;;;;;;;;;;;;;17.64;57.65;100183.11;2386328;73;51417;-79
2022/11/18 13:17:57;;;;;;;;;;;;;;;17.54;57.82;100194.61;2413412;73;22330;-79
2022/11/18 13:23:50;;;;;;;;;;;;;;;17.59;57.67;100196.22;2412866;73;50781;-78
2022/11/18 13:24:03;;;;;;;;;;;;;;;17.66;57.61;100191.47;2368140;73;22400;-79
2022/11/18 13:27:05;;;;;;;;;;;;;;;17.69;57.58;100198.60;2405403;73;51568;-80
2022/11/18 13:30:08;;;;;;;;;;;;;;;17.74;57.51;100196.70;2383194;73;51529;-79
2022/11/18 13:33:10;;;;;;;;;;;;;;;17.73;57.53;100211.94;2382184;73;51530;-78
2022/11/18 13:36:18;;;;;;;;;;;;;;;17.73;57.55;100200.41;2357333;74;49634;-79
2022/11/18 13:39:22;;;;;;;;;;;;;;;17.69;57.70;100201.80;2394845;74;50680;-80
2022/11/18 13:42:24;;;;;;;;;;;;;;;17.67;57.67;100203.81;2395173;74;50760;-79
2022/11/18 13:45:26;;;;;;;;;;;;;;;17.62;57.80;100207.91;2395215;74;50262;-80
2022/11/18 13:48:28;;;;;;;;;;;;;;;17.61;57.80;100208.91;2380843;73;49707;-80
2022/11/18 13:51:29;;;;;;;;;;;;;;;17.61;57.78;100212.92;2410008;73;49930;-80
2022/11/18 13:54:31;;;;;;;;;;;;;;;17.54;57.89;100199.96;2378131;73;50370;-80
2022/11/18 13:57:33;;;;;;;;;;;;;;;17.61;57.80;100207.56;2415608;73;49928;-79
2022/11/18 14:00:34;;;;;;;;;;;;;;;17.72;57.53;100209.44;2416829;73;51069;-79
2022/11/18 14:03:38;;;;;;;;;;;;;;;17.69;57.70;100220.01;2414361;73;51550;-79
2022/11/18 14:06:41;;;;;;;;;;;;;;;17.71;57.67;100211.80;2412604;73;50970;-79
2022/11/18 14:09:52;;;;;;;;;;;;;;;17.73;57.62;100223.98;2414746;73;50744;-79
2022/11/18 14:12:55;;;;;;;;;;;;;;;17.74;57.62;100224.80;2414299;73;51497;-79
2022/11/18 14:15:58;;;;;;;;;;;;;;;17.66;57.83;100226.25;2412471;73;51670;-80
2022/11/18 14:19:00;;;;;;;;;;;;;;;17.60;57.99;100220.63;2369000;75;51531;-79
2022/11/18 14:22:05;;;;;;;;;;;;;;;17.58;58.09;100225.34;2370912;73;50672;-79
2022/11/18 14:25:08;;;;;;;;;;;;;;;17.53;58.14;100225.06;2378849;74;49667;-78
2022/11/18 14:28:11;;;;;;;;;;;;;;;17.51;58.19;100227.09;2408785;74;50338;-79
2022/11/18 14:31:16;;;;;;;;;;;;;;;17.49;58.31;100242.48;2408752;73;51461;-78
2022/11/18 14:34:19;;;;;;;;;;;;;;;17.48;58.24;100246.70;2408831;74;50363;-79
2022/11/18 14:37:21;;;;;;;;;;;;;;;17.62;57.85;100252.05;2382837;74;53288;-78
2022/11/18 14:40:23;;;;;;;;;;;;;;;17.63;57.69;100252.36;2408861;74;51535;-78
2022/11/18 14:43:24;;;;;;;;;;;;;;;17.69;57.50;100258.80;2408571;74;51470;-78
2022/11/18 14:46:26;;;;;;;;;;;;;;;17.70;57.42;100265.84;2408691;74;50255;-78
2022/11/18 14:49:30;;;;;;;;;;;;;;;17.74;57.16;100265.77;2408916;74;50261;-78
2022/11/18 14:52:31;;;;;;;;;;;;;;;17.73;57.24;100267.31;2401388;73;22365;-78
2022/11/18 14:55:32;;;;;;;;;;;;;;;17.71;57.22;100270.67;2361179;73;50773;-78
2022/11/18 14:58:34;;;;;;;;;;;;;;;17.71;57.13;100274.17;2367743;74;51393;-79
2022/11/18 15:01:35;;;;;;;;;;;;;;;17.65;57.27;100273.59;2341618;75;51551;-78
2022/11/18 15:04:37;;;;;;;;;;;;;;;17.59;57.41;100271.13;2341663;75;51516;-79
2022/11/18 15:07:39;;;;;;;;;;;;;;;17.57;57.49;100271.84;2369347;75;50212;-78
2022/11/18 15:10:40;;;;;;;;;;;;;;;17.60;57.41;100276.81;2368900;75;50778;-78
2022/11/18 15:13:42;;;;;;;;;;;;;;;17.54;57.47;100284.73;2340308;75;51148;-77
2022/11/18 15:16:43;;;;;;;;;;;;;;;17.57;57.30;100289.23;2368677;75;50332;-78
2022/11/18 15:19:45;;;;;;;;;;;;;;;17.62;57.26;100294.86;2341236;75;50893;-77
2022/11/18 15:22:47;;;;;;;;;;;;;;;17.65;57.20;100296.33;2389887;72;50334;-78
2022/11/18 15:25:48;;;;;;;;;;;;;;;17.72;57.09;100303.09;2360227;73;50090;-77
2022/11/18 15:28:50;;;;;;;;;;;;;;;17.78;56.90;100303.19;2388137;73;52259;-77
2022/11/18 15:31:52;;;;;;;;;;;;;;;17.78;56.86;100301.03;2413259;73;50132;-77
2022/11/18 15:34:53;;;;;;;;;;;;;;;17.73;57.01;100305.59;2413509;73;50631;-78
2022/11/18 15:37:55;;;;;;;;;;;;;;;17.68;57.13;100301.82;2414232;73;51491;-78
2022/11/18 15:40:57;;;;;;;;;;;;;;;17.62;57.18;100302.88;2372629;74;51536;-77
2022/11/18 15:43:59;;;;;;;;;;;;;;;17.61;57.19;100319.93;2388818;73;50669;-77
2022/11/18 15:47:00;;;;;;;;;;;;;;;17.57;57.26;100326.69;2411610;73;50411;-78
2022/11/18 15:50:02;;;;;;;;;;;;;;;17.58;57.21;100329.67;2381575;73;49566;-77
2022/11/18 15:53:03;;;;;;;;;;;;;;;17.62;57.02;100332.31;2382492;73;50338;-78
2022/11/18 15:56:25;;;;;;;;;;;;;;;17.59;57.08;100333.99;2411996;73;50252;-78
2022/11/18 15:59:26;;;;;;;;;;;;;;;17.62;57.00;100337.66;2412114;73;50424;-79
2022/11/18 16:02:29;;;;;;;;;;;;;;;17.67;56.92;100338.94;2361179;73;51185;-78
2022/11/18 16:05:30;;;;;;;;;;;;;;;17.70;56.88;100338.08;2393675;73;51579;-77
2022/11/18 16:08:32;;;;;;;;;;;;;;;17.76;56.77;100340.52;2393487;73;51490;-77
2022/11/18 16:15:42;;;;;;;;;;;;;;;17.78;56.58;100338.50;2380347;73;22316;-78
2022/11/18 16:17:57;;;;;;;;;;;;;;;17.79;56.56;100353.05;2393898;73;22364;-78